Terminal Aerodrome Forecast
Issued by NWS

Home | Current Version | Previous Version | Text Only | Print | Product List | Glossary On
Versions: 1 2 3 4 5 6 7 8 9 10 11 12 13 14 15 16
000
FTUS41 KBGM 311721
TAFRME
TAF
KRME 311721Z 3118/0118 27007KT P6SM SCT025 BKN035
      TEMPO 3118/3119 BKN025
     FM312100 28012KT P6SM SCT050
     FM312300 VRB03KT P6SM SKC
     FM011500 24003KT P6SM FEW040=

USA.gov is the U.S. government's official web portal to all federal, state and local government web resources and services.